Time;durP1;ratioP1;P1;durP2;ratioP2;P2;SDS_P1;SDS_P2;PMS_P1;PMS_P2;Temp;Humidity;BMP_temperature;BMP_pressure;BME280_temperature;BME280_humidity;BME280_pressure;Samples;Min_cycle;Max_cycle;Signal;HPM_P1;HPM_P2
2023/10/19 00:01:54;;;;;;;77.20;36.40;;;;;;;1.08;68.28;99749.00;130953;1256;108535;-78
2023/10/19 00:05:00;;;;;;;74.60;36.40;;;;;;;1.05;68.42;99745.34;130918;1266;106807;-77
2023/10/19 00:08:14;;;;;;;78.30;38.00;;;;;;;1.04;68.26;99745.80;130942;1256;108627;-79
2023/10/19 00:11:23;;;;;;;78.90;36.80;;;;;;;0.96;68.24;99749.80;130916;1256;108045;-79
2023/10/19 00:14:29;;;;;;;73.50;36.70;;;;;;;0.94;68.40;99739.59;131002;1254;108716;-78
2023/10/19 00:17:35;;;;;;;76.40;37.40;;;;;;;0.94;68.35;99735.98;130923;1256;106649;-78
2023/10/19 00:20:51;;;;;;;82.30;38.90;;;;;;;0.89;68.36;99733.52;131109;1260;107697;-78
2023/10/19 00:24:04;;;;;;;75.40;38.40;;;;;;;0.84;68.57;99731.23;130912;1256;107563;-78
2023/10/19 00:27:15;;;;;;;84.30;40.00;;;;;;;0.80;68.50;99728.31;130995;1256;107660;-78
2023/10/19 00:30:24;;;;;;;82.00;39.80;;;;;;;0.81;68.52;99728.27;130968;1256;107731;-77
2023/10/19 00:33:30;;;;;;;82.30;40.60;;;;;;;0.79;68.58;99732.59;130892;1257;107704;-77
2023/10/19 00:36:38;;;;;;;77.90;38.30;;;;;;;0.79;68.54;99729.59;130935;1256;107188;-77
2023/10/19 00:39:50;;;;;;;72.60;37.00;;;;;;;0.80;68.56;99726.04;130897;1257;107808;-78
2023/10/19 00:42:56;;;;;;;84.00;39.30;;;;;;;0.75;68.58;99720.91;130997;1257;106463;-77
2023/10/19 00:46:08;;;;;;;78.00;37.30;;;;;;;0.74;68.52;99712.29;130931;1256;106752;-78
2023/10/19 00:49:15;;;;;;;76.10;36.70;;;;;;;0.73;68.62;99710.92;130957;1257;105747;-77
2023/10/19 00:52:23;;;;;;;77.20;36.60;;;;;;;0.70;68.62;99705.85;131006;1256;108381;-77
2023/10/19 00:55:29;;;;;;;76.30;37.10;;;;;;;0.69;68.63;99704.37;130882;1256;106474;-78
2023/10/19 00:58:41;;;;;;;74.60;35.90;;;;;;;0.69;68.66;99699.99;130990;1254;107133;-78
2023/10/19 01:01:48;;;;;;;74.20;36.80;;;;;;;0.68;68.63;99698.30;130913;1257;106434;-77
2023/10/19 01:04:59;;;;;;;70.10;35.20;;;;;;;0.65;68.64;99693.75;130890;1256;106765;-77
2023/10/19 01:08:19;;;;;;;77.50;36.50;;;;;;;0.65;68.73;99692.89;130935;1256;108694;-78
2023/10/19 01:11:28;;;;;;;67.40;33.20;;;;;;;0.64;68.76;99687.71;130834;1259;107463;-78
2023/10/19 01:14:35;;;;;;;73.90;34.30;;;;;;;0.65;68.89;99688.33;130951;1257;107825;-77
2023/10/19 01:17:43;;;;;;;70.20;31.50;;;;;;;0.73;68.89;99686.44;130917;1259;106536;-77
2023/10/19 01:20:51;;;;;;;73.10;34.10;;;;;;;0.80;68.83;99686.86;130999;1257;106370;-77
2023/10/19 01:23:58;;;;;;;72.60;33.50;;;;;;;0.86;68.64;99681.38;130870;1266;107646;-77
2023/10/19 01:27:08;;;;;;;73.60;33.50;;;;;;;0.92;68.70;99678.66;131013;1256;107312;-77
2023/10/19 01:30:17;;;;;;;69.90;33.50;;;;;;;0.96;68.62;99676.80;130954;1266;106756;-77
2023/10/19 01:33:24;;;;;;;73.70;34.70;;;;;;;0.95;68.59;99672.64;130981;1257;106523;-77
2023/10/19 01:36:35;;;;;;;66.70;33.10;;;;;;;0.92;68.51;99667.05;130923;1256;106908;-77
2023/10/19 01:39:45;;;;;;;69.70;34.90;;;;;;;0.89;68.55;99665.41;130897;1256;107547;-77
2023/10/19 01:42:51;;;;;;;73.10;34.50;;;;;;;0.87;68.67;99660.27;130902;1266;107708;-77
2023/10/19 01:45:56;;;;;;;67.50;34.70;;;;;;;0.85;68.77;99655.83;130996;1257;106887;-77
2023/10/19 01:49:03;;;;;;;69.90;34.50;;;;;;;0.84;68.81;99652.20;130922;1256;107053;-77
2023/10/19 01:52:10;;;;;;;70.40;35.10;;;;;;;0.84;68.83;99647.02;130981;1257;107621;-76
2023/10/19 01:55:20;;;;;;;71.80;35.90;;;;;;;0.82;68.87;99645.00;130791;1255;108536;-77
2023/10/19 01:58:26;;;;;;;74.50;35.90;;;;;;;0.79;68.86;99644.52;130946;1256;108530;-76
2023/10/19 02:01:32;;;;;;;71.50;36.60;;;;;;;0.77;68.90;99642.02;130840;1256;108781;-78
2023/10/19 02:04:40;;;;;;;77.90;35.90;;;;;;;0.74;68.91;99639.21;130909;1254;108055;-78
2023/10/19 02:07:46;;;;;;;72.40;34.60;;;;;;;0.70;68.89;99636.73;130972;1256;108852;-77
2023/10/19 02:10:52;;;;;;;66.20;34.60;;;;;;;0.67;69.07;99625.89;130798;1258;106717;-77
2023/10/19 02:14:00;;;;;;;67.00;33.90;;;;;;;0.64;68.89;99623.81;130820;1257;107678;-77
2023/10/19 02:17:06;;;;;;;66.90;33.70;;;;;;;0.61;68.99;99617.90;131030;1256;108086;-77
2023/10/19 02:20:24;;;;;;;68.00;34.80;;;;;;;0.57;69.05;99613.84;131387;1256;107595;-77
2023/10/19 02:23:30;;;;;;;69.40;34.50;;;;;;;0.52;69.07;99603.83;130972;1256;107689;-77
2023/10/19 02:26:37;;;;;;;64.80;33.60;;;;;;;0.50;69.21;99599.45;130779;1257;107392;-79
2023/10/19 02:29:44;;;;;;;65.20;33.40;;;;;;;0.49;69.13;99596.68;131078;1265;106867;-75
2023/10/19 02:32:49;;;;;;;68.10;34.30;;;;;;;0.49;69.18;99592.17;130919;1257;107677;-76
2023/10/19 02:35:57;;;;;;;65.30;33.50;;;;;;;0.46;69.12;99586.04;130989;1254;108117;-77
2023/10/19 02:39:07;;;;;;;63.60;33.50;;;;;;;0.43;69.09;99589.06;131147;1267;108525;-78
2023/10/19 02:42:13;;;;;;;65.80;33.80;;;;;;;0.42;69.17;99584.25;131794;1253;106187;-78
2023/10/19 02:45:19;;;;;;;61.30;33.70;;;;;;;0.41;69.25;99581.70;131041;1256;108421;-77
2023/10/19 02:48:24;;;;;;;72.80;34.70;;;;;;;0.39;69.21;99577.94;130887;1254;108477;-78
2023/10/19 02:51:30;;;;;;;68.60;32.60;;;;;;;0.41;69.30;99568.73;130908;1252;108180;-77
2023/10/19 02:54:36;;;;;;;66.30;32.80;;;;;;;0.45;69.36;99564.96;130746;1260;108812;-77
2023/10/19 02:57:46;;;;;;;58.90;28.40;;;;;;;0.53;69.47;99559.11;130967;1258;108696;-77
2023/10/19 03:00:52;;;;;;;65.00;31.90;;;;;;;0.63;69.45;99554.64;130969;1257;108672;-77
2023/10/19 03:03:59;;;;;;;65.10;31.50;;;;;;;0.70;69.40;99550.77;130938;1266;108639;-77
2023/10/19 03:07:07;;;;;;;62.30;31.70;;;;;;;0.74;69.17;99550.54;131059;1254;108711;-77
2023/10/19 03:10:23;;;;;;;58.50;31.30;;;;;;;0.75;69.22;99542.88;131080;1254;107595;-77
2023/10/19 03:13:29;;;;;;;56.90;30.50;;;;;;;0.76;69.21;99535.80;130939;1256;106690;-77
2023/10/19 03:16:35;;;;;;;58.60;31.40;;;;;;;0.77;69.38;99528.35;131023;1254;107743;-76
2023/10/19 03:19:42;;;;;;;58.30;31.10;;;;;;;0.79;69.24;99520.77;130982;1257;106957;-77
2023/10/19 03:22:47;;;;;;;64.50;32.00;;;;;;;0.78;69.39;99513.43;130638;1258;108747;-76
2023/10/19 03:29:31;;;;;;;60.20;31.80;;;;;;;0.75;69.29;99504.95;131022;1257;108553;-79
2023/10/19 03:32:36;;;;;;;62.00;32.10;;;;;;;0.70;69.35;99501.95;130923;1267;106254;-77
2023/10/19 03:35:42;;;;;;;57.70;30.60;;;;;;;0.68;69.44;99497.73;131054;1254;106944;-77
2023/10/19 03:38:49;;;;;;;57.90;30.50;;;;;;;0.67;69.44;99494.42;130786;1258;107016;-77
2023/10/19 03:41:57;;;;;;;58.40;29.40;;;;;;;0.65;69.44;99479.69;130755;1254;106394;-78
2023/10/19 03:45:08;;;;;;;57.20;31.60;;;;;;;0.63;69.58;99473.39;130976;1254;107138;-77
2023/10/19 03:48:16;;;;;;;58.90;30.10;;;;;;;0.60;69.53;99469.59;131067;1256;107372;-76
2023/10/19 03:51:25;;;;;;;57.00;30.10;;;;;;;0.58;69.58;99467.59;130878;1258;108701;-78
2023/10/19 03:54:32;;;;;;;54.60;30.20;;;;;;;0.57;69.44;99467.88;130758;1260;106481;-77
2023/10/19 03:57:41;;;;;;;55.90;30.00;;;;;;;0.54;69.54;99460.37;130768;1254;106725;-77
2023/10/19 04:00:48;;;;;;;56.20;30.10;;;;;;;0.53;69.58;99455.02;130900;1254;108419;-77
2023/10/19 04:03:55;;;;;;;56.80;30.50;;;;;;;0.51;69.59;99451.80;130993;1264;108422;-78
2023/10/19 04:07:10;;;;;;;56.00;29.80;;;;;;;0.50;69.69;99451.52;130994;1257;108678;-77
2023/10/19 04:10:29;;;;;;;60.10;31.30;;;;;;;0.51;69.63;99445.03;130968;1257;107627;-77
2023/10/19 04:13:35;;;;;;;68.20;30.50;;;;;;;0.50;69.69;99438.77;130966;1257;107353;-78
2023/10/19 04:16:43;;;;;;;59.00;29.10;;;;;;;0.48;69.59;99434.88;130935;1258;108080;-77
2023/10/19 04:19:49;;;;;;;60.40;29.30;;;;;;;0.50;69.70;99437.38;130936;1257;106704;-78
2023/10/19 04:22:57;;;;;;;52.00;26.10;;;;;;;0.56;69.80;99433.78;130931;1254;106536;-77
2023/10/19 04:26:10;;;;;;;55.80;28.80;;;;;;;0.64;69.76;99430.94;130996;1257;106448;-77
2023/10/19 04:29:19;;;;;;;55.40;27.80;;;;;;;0.70;69.71;99431.72;131069;1254;106762;-77
2023/10/19 04:32:25;;;;;;;49.60;27.80;;;;;;;0.74;69.55;99427.95;131047;1256;107736;-76
2023/10/19 04:35:34;;;;;;;55.50;29.80;;;;;;;0.75;69.63;99424.54;130923;1254;109009;-77
2023/10/19 04:38:39;;;;;;;56.40;29.60;;;;;;;0.77;69.67;99422.66;130962;1257;107745;-77
2023/10/19 04:41:45;;;;;;;57.20;28.80;;;;;;;0.78;69.75;99415.77;130960;1254;108034;-78
2023/10/19 04:44:53;;;;;;;56.60;29.30;;;;;;;0.79;69.85;99409.22;131154;1254;107998;-78
2023/10/19 04:47:59;;;;;;;52.30;28.10;;;;;;;0.77;69.77;99412.50;130937;1258;106307;-77
2023/10/19 04:51:05;;;;;;;51.90;27.00;;;;;;;0.75;69.72;99415.98;131000;1254;108768;-77
2023/10/19 04:54:11;;;;;;;52.50;27.60;;;;;;;0.69;69.66;99409.38;130952;1257;109359;-77
2023/10/19 04:57:17;;;;;;;49.90;28.20;;;;;;;0.67;69.70;99410.41;130904;1256;107809;-78
2023/10/19 05:00:24;;;;;;;49.40;27.00;;;;;;;0.65;69.77;99412.20;132417;1253;108810;-78
2023/10/19 05:03:29;;;;;;;53.00;28.60;;;;;;;0.64;69.79;99407.88;133713;1252;105931;-77
2023/10/19 05:06:35;;;;;;;48.80;26.50;;;;;;;0.63;69.84;99399.15;131101;1254;107192;-77
2023/10/19 05:09:41;;;;;;;53.40;27.20;;;;;;;0.64;70.00;99393.87;131232;1256;108614;-77
2023/10/19 05:12:46;;;;;;;61.10;28.50;;;;;;;0.62;69.97;99390.33;131173;1254;108282;-79
2023/10/19 05:15:52;;;;;;;61.80;31.30;;;;;;;0.60;69.95;99382.23;130969;1253;107722;-79
2023/10/19 05:18:58;;;;;;;60.50;29.80;;;;;;;0.61;70.11;99382.39;130784;1257;106582;-78
2023/10/19 05:22:05;;;;;;;56.80;29.40;;;;;;;0.61;69.99;99398.41;130937;1254;108644;-78
2023/10/19 05:25:11;;;;;;;60.70;28.60;;;;;;;0.60;70.01;99393.23;130950;1264;106731;-78
2023/10/19 05:28:18;;;;;;;56.30;29.00;;;;;;;0.60;70.09;99386.43;131001;1257;106887;-78
2023/10/19 05:31:24;;;;;;;54.30;27.80;;;;;;;0.59;70.02;99386.02;130869;1254;107696;-78
2023/10/19 05:34:32;;;;;;;48.50;26.60;;;;;;;0.56;70.04;99382.19;130827;1257;107701;-78
2023/10/19 05:37:37;;;;;;;52.30;28.30;;;;;;;0.54;70.22;99381.58;130999;1254;106439;-78
2023/10/19 05:40:44;;;;;;;52.10;26.40;;;;;;;0.55;70.21;99381.04;130914;1258;108658;-78
2023/10/19 05:43:49;;;;;;;49.40;25.10;;;;;;;0.57;70.42;99383.84;130864;1256;108583;-78
2023/10/19 05:46:56;;;;;;;49.00;25.80;;;;;;;0.63;70.30;99384.11;130867;1256;108598;-79
2023/10/19 05:50:04;;;;;;;41.20;22.40;;;;;;;0.72;70.47;99382.45;130889;1256;108493;-78
2023/10/19 05:53:10;;;;;;;46.60;24.70;;;;;;;0.84;70.56;99376.65;130963;1267;106923;-77
2023/10/19 05:56:16;;;;;;;50.40;26.40;;;;;;;0.97;70.44;99382.50;130910;1257;106671;-78
2023/10/19 05:59:23;;;;;;;44.30;24.40;;;;;;;1.10;70.41;99385.45;130911;1257;106845;-79
2023/10/19 06:02:29;;;;;;;44.80;25.70;;;;;;;1.21;70.50;99384.07;130953;1258;107711;-78
2023/10/19 06:05:34;;;;;;;45.20;25.50;;;;;;;1.31;70.44;99385.24;130889;1253;106413;-78
2023/10/19 06:08:41;;;;;;;50.50;26.50;;;;;;;1.41;70.56;99377.16;130916;1257;108490;-78
2023/10/19 06:11:46;;;;;;;46.00;25.60;;;;;;;1.49;70.61;99369.69;130870;1260;106886;-79
2023/10/19 06:14:52;;;;;;;46.10;26.10;;;;;;;1.58;70.68;99362.89;130885;1256;108676;-79
2023/10/19 06:17:57;;;;;;;44.50;26.20;;;;;;;1.65;70.85;99362.73;130899;1258;108886;-78
2023/10/19 06:21:04;;;;;;;50.20;26.20;;;;;;;1.72;70.82;99364.08;130874;1257;108484;-78
2023/10/19 06:24:14;;;;;;;45.90;26.30;;;;;;;1.78;70.86;99354.37;130926;1253;106896;-78
2023/10/19 06:27:20;;;;;;;45.40;25.30;;;;;;;1.85;71.04;99351.86;130863;1254;107143;-78
2023/10/19 06:30:26;;;;;;;46.00;27.30;;;;;;;1.92;71.13;99353.02;130842;1254;107725;-78
2023/10/19 06:33:33;;;;;;;53.90;31.50;;;;;;;1.98;71.27;99359.11;130951;1253;107728;-78
2023/10/19 06:36:41;;;;;;;78.40;45.80;;;;;;;2.06;71.56;99357.96;130904;1254;107718;-78
2023/10/19 06:39:46;;;;;;;63.00;37.10;;;;;;;2.15;71.66;99351.92;130898;1257;108626;-78
2023/10/19 06:42:55;;;;;;;57.60;31.30;;;;;;;2.26;71.63;99344.55;130900;1256;106352;-79
2023/10/19 06:46:01;;;;;;;69.40;36.90;;;;;;;2.38;72.08;99342.61;130909;1257;106617;-77
2023/10/19 06:49:07;;;;;;;66.30;36.40;;;;;;;2.52;72.22;99342.67;130923;1257;106611;-79
2023/10/19 06:52:13;;;;;;;70.30;39.60;;;;;;;2.71;72.50;99343.24;130930;1257;108393;-79
2023/10/19 06:55:20;;;;;;;75.10;43.40;;;;;;;2.92;72.44;99337.11;130848;1256;248491;-77
2023/10/19 06:58:27;;;;;;;70.30;39.00;;;;;;;3.12;72.48;99337.05;131060;1253;107441;-77
2023/10/19 07:01:36;;;;;;;73.70;42.30;;;;;;;3.30;72.77;99337.17;130731;1256;106967;-79
2023/10/19 07:04:42;;;;;;;71.10;42.70;;;;;;;3.46;72.74;99336.65;130932;1256;108446;-77
2023/10/19 07:07:48;;;;;;;77.60;44.80;;;;;;;3.62;73.14;99333.38;130873;1258;108595;-78
2023/10/19 07:10:54;;;;;;;48.40;28.70;;;;;;;3.78;73.30;99323.37;130943;1253;106746;-78
2023/10/19 07:14:00;;;;;;;43.30;25.70;;;;;;;3.95;73.89;99314.71;130979;1256;108624;-78
2023/10/19 07:17:07;;;;;;;43.10;25.20;;;;;;;4.11;74.20;99302.21;130730;1257;108334;-77
2023/10/19 07:20:25;;;;;;;45.30;25.70;;;;;;;4.26;74.49;99297.23;130815;1256;107644;-78
2023/10/19 07:23:31;;;;;;;42.40;25.10;;;;;;;4.39;74.77;99290.23;130947;1258;107824;-78
2023/10/19 07:26:43;;;;;;;34.00;21.70;;;;;;;4.54;74.78;99289.77;130904;1256;106624;-76
2023/10/19 07:29:49;;;;;;;34.40;21.60;;;;;;;4.71;75.09;99281.75;130953;1256;107601;-78
2023/10/19 07:32:58;;;;;;;33.70;20.80;;;;;;;4.91;75.20;99269.55;130855;1256;108776;-78
2023/10/19 07:36:08;;;;;;;34.00;21.10;;;;;;;5.12;75.21;99261.83;130919;1256;107712;-78
2023/10/19 07:39:18;;;;;;;32.70;19.80;;;;;;;5.29;75.38;99262.35;130952;1257;108577;-77
2023/10/19 07:42:25;;;;;;;31.30;19.60;;;;;;;5.43;75.56;99264.14;130893;1257;107844;-78
2023/10/19 07:45:31;;;;;;;31.60;19.90;;;;;;;5.56;75.50;99264.08;130958;1252;107767;-78
2023/10/19 07:48:38;;;;;;;31.60;20.40;;;;;;;5.69;75.61;99265.06;130937;1257;107519;-77
2023/10/19 07:51:47;;;;;;;33.80;20.40;;;;;;;5.80;75.54;99266.50;130983;1256;107808;-78
2023/10/19 07:54:53;;;;;;;29.40;17.60;;;;;;;5.88;75.55;99260.61;130915;1257;107642;-78
2023/10/19 07:58:00;;;;;;;29.40;17.60;;;;;;;5.97;75.73;99252.05;130970;1256;108706;-77
2023/10/19 08:01:06;;;;;;;31.20;20.00;;;;;;;6.07;75.74;99238.68;130967;1254;107629;-79
2023/10/19 08:04:12;;;;;;;32.10;19.70;;;;;;;6.19;75.79;99224.59;130859;1253;107796;-79
2023/10/19 08:07:19;;;;;;;32.50;19.40;;;;;;;6.29;75.61;99224.52;130914;1264;107081;-79
2023/10/19 08:10:26;;;;;;;29.50;19.60;;;;;;;6.37;75.83;99223.99;130893;1256;106871;-79
2023/10/19 08:13:33;;;;;;;28.10;18.70;;;;;;;6.45;75.65;99217.98;130939;1253;109173;-79
2023/10/19 08:16:38;;;;;;;28.80;18.10;;;;;;;6.56;75.34;99214.85;130944;1256;107577;-79
2023/10/19 08:19:45;;;;;;;27.90;18.30;;;;;;;6.65;75.42;99212.13;131002;1254;106893;-79
2023/10/19 08:22:51;;;;;;;27.70;17.00;;;;;;;6.73;75.37;99210.48;130941;1267;109398;-79
2023/10/19 08:25:57;;;;;;;27.30;17.60;;;;;;;6.81;75.00;99203.30;130987;1256;108474;-78
2023/10/19 08:29:11;;;;;;;28.40;18.30;;;;;;;6.93;75.13;99192.91;131056;1256;106651;-78
2023/10/19 08:32:17;;;;;;;26.60;17.00;;;;;;;7.06;74.93;99186.26;130917;1253;106426;-77
2023/10/19 08:35:25;;;;;;;22.90;15.00;;;;;;;7.18;75.02;99185.91;130881;1253;108765;-79
2023/10/19 08:38:30;;;;;;;27.40;17.50;;;;;;;7.31;74.97;99180.92;130931;1265;108678;-79
2023/10/19 08:41:37;;;;;;;24.20;15.60;;;;;;;7.44;74.89;99169.79;130870;1256;107663;-79
2023/10/19 08:44:43;;;;;;;26.50;18.70;;;;;;;7.58;74.46;99168.41;131048;1253;107663;-78
2023/10/19 08:47:56;;;;;;;21.90;16.00;;;;;;;7.69;74.64;99164.40;130991;1256;108705;-78
2023/10/19 08:51:03;;;;;;;29.30;17.80;;;;;;;7.81;74.50;99151.42;130882;1256;108651;-78
2023/10/19 08:54:10;;;;;;;24.10;16.70;;;;;;;7.90;74.18;99147.98;130945;1256;107713;-78
2023/10/19 08:57:16;;;;;;;29.90;19.70;;;;;;;7.96;73.87;99149.31;130938;1253;107645;-78
2023/10/19 09:00:24;;;;;;;33.40;21.30;;;;;;;8.00;73.72;99143.99;131003;1256;106404;-78
2023/10/19 09:03:30;;;;;;;25.80;16.20;;;;;;;8.02;73.60;99136.25;130696;1257;106971;-78
2023/10/19 09:06:41;;;;;;;22.30;14.70;;;;;;;8.03;73.49;99131.88;130885;1256;107702;-78
2023/10/19 09:09:48;;;;;;;20.10;15.00;;;;;;;8.04;73.48;99127.30;130947;1256;107754;-78
2023/10/19 09:13:04;;;;;;;22.20;16.00;;;;;;;8.08;73.58;99127.14;130926;1256;108757;-78
2023/10/19 09:16:10;;;;;;;20.70;14.20;;;;;;;8.13;73.22;99116.98;130917;1256;107915;-78
2023/10/19 09:19:16;;;;;;;18.90;14.30;;;;;;;8.17;73.17;99115.16;130951;1256;108178;-78
2023/10/19 09:22:22;;;;;;;21.10;14.90;;;;;;;8.23;73.25;99110.80;130913;1256;108594;-78
2023/10/19 09:25:28;;;;;;;22.60;14.10;;;;;;;8.28;73.14;99104.76;130887;1253;107056;-78
2023/10/19 09:28:37;;;;;;;19.20;14.00;;;;;;;8.33;73.06;99095.09;131017;1256;108660;-78
2023/10/19 09:31:43;;;;;;;21.10;13.70;;;;;;;8.38;73.04;99084.02;130967;1257;107511;-78
2023/10/19 09:34:52;;;;;;;19.50;13.50;;;;;;;8.43;72.71;99080.36;130986;1256;107501;-77
2023/10/19 09:38:00;;;;;;;19.00;13.50;;;;;;;8.43;72.72;99069.83;130932;1257;108410;-77
2023/10/19 09:41:08;;;;;;;21.20;13.60;;;;;;;8.48;72.51;99063.46;130935;1254;108584;-78
2023/10/19 09:44:17;;;;;;;19.50;12.50;;;;;;;8.53;72.58;99059.92;130936;1252;107118;-78
2023/10/19 09:47:31;;;;;;;18.90;12.50;;;;;;;8.60;72.33;99056.67;130911;1256;108711;-79
2023/10/19 09:50:37;;;;;;;17.90;12.80;;;;;;;8.68;72.47;99048.36;130871;1253;108590;-78
2023/10/19 09:53:47;;;;;;;19.20;12.50;;;;;;;8.76;72.36;99048.59;130856;1256;108651;-77
2023/10/19 09:57:02;;;;;;;21.40;13.90;;;;;;;8.81;72.08;99047.46;130897;1257;106089;-78
2023/10/19 10:00:11;;;;;;;22.20;14.20;;;;;;;8.85;71.76;99031.96;130886;1256;108560;-77
2023/10/19 10:03:45;;;;;;;17.10;13.40;;;;;;;8.89;71.87;99026.29;130926;1256;108618;-77
2023/10/19 10:07:06;;;;;;;21.00;14.50;;;;;;;8.96;71.43;99028.92;130859;1254;107662;-77
2023/10/19 10:10:12;;;;;;;19.60;13.40;;;;;;;9.04;71.62;99028.91;130941;1256;108028;-78
2023/10/19 10:13:41;;;;;;;19.50;13.00;;;;;;;9.09;71.08;99032.13;130984;1256;107309;-78
2023/10/19 10:16:48;;;;;;;19.00;13.10;;;;;;;9.12;70.86;99037.96;130912;1256;106615;-78
2023/10/19 10:19:57;;;;;;;17.20;12.70;;;;;;;9.14;71.12;99036.95;130903;1256;106893;-78
2023/10/19 10:23:26;;;;;;;19.00;14.20;;;;;;;9.20;70.83;99031.33;130934;1256;107612;-79
2023/10/19 10:26:53;;;;;;;20.50;14.20;;;;;;;9.27;70.89;99027.14;130941;1253;109351;-78
2023/10/19 10:30:06;;;;;;;21.50;12.00;;;;;;;9.36;70.78;99014.45;130903;1257;106372;-78
2023/10/19 10:33:39;;;;;;;18.50;12.30;;;;;;;9.43;70.36;99005.45;130936;1253;106921;-77
2023/10/19 10:37:02;;;;;;;18.00;12.80;;;;;;;9.52;70.36;98996.14;130772;1256;107324;-77
2023/10/19 10:40:09;;;;;;;18.00;12.80;;;;;;;9.65;70.76;98987.88;130892;1253;108447;-77
2023/10/19 10:43:16;;;;;;;19.90;13.20;;;;;;;9.75;70.24;98982.58;130977;1256;107679;-78
2023/10/19 10:46:23;;;;;;;21.70;14.10;;;;;;;9.83;70.47;98984.27;130969;1256;108565;-78
2023/10/19 10:49:29;;;;;;;16.60;11.70;;;;;;;9.94;69.99;98976.53;130828;1254;107377;-77
2023/10/19 10:52:36;;;;;;;16.60;11.70;;;;;;;10.05;70.32;98968.99;130896;1256;107053;-78
2023/10/19 10:55:42;;;;;;;17.40;12.80;;;;;;;10.15;69.76;98965.44;130876;1256;106846;-78
2023/10/19 10:58:49;;;;;;;20.80;12.90;;;;;;;10.18;69.41;98963.33;130948;1257;107163;-78
2023/10/19 11:01:55;;;;;;;17.00;12.60;;;;;;;10.20;69.37;98956.77;130900;1256;108703;-78
2023/10/19 11:05:01;;;;;;;18.40;12.30;;;;;;;10.24;69.43;98948.40;130839;1256;106601;-77
2023/10/19 11:08:09;;;;;;;20.60;13.50;;;;;;;10.26;69.12;98939.45;130946;1254;106548;-77
2023/10/19 11:11:15;;;;;;;19.60;13.30;;;;;;;10.25;69.33;98932.34;130868;1256;106545;-78
2023/10/19 11:14:24;;;;;;;19.10;13.40;;;;;;;10.23;69.28;98922.19;130934;1255;107122;-79
2023/10/19 11:17:31;;;;;;;19.50;13.80;;;;;;;10.18;69.15;98914.98;130930;1252;107204;-78
2023/10/19 11:20:37;;;;;;;22.60;15.00;;;;;;;10.12;68.98;98916.05;130898;1253;107026;-77
2023/10/19 11:23:47;;;;;;;20.30;13.80;;;;;;;10.01;68.82;98912.56;130950;1253;107567;-77
2023/10/19 11:26:52;;;;;;;21.70;13.90;;;;;;;9.90;68.98;98916.90;130852;1256;106910;-78
2023/10/19 11:29:59;;;;;;;17.10;12.80;;;;;;;9.77;69.05;98912.58;131012;1253;108939;-78
2023/10/19 11:33:05;;;;;;;18.10;13.10;;;;;;;9.64;69.17;98908.67;130940;1253;105883;-77
2023/10/19 11:36:12;;;;;;;19.80;12.90;;;;;;;9.53;68.87;98916.88;130851;1254;106624;-78
2023/10/19 11:39:17;;;;;;;19.50;13.60;;;;;;;9.44;69.26;98911.86;130907;1256;107664;-78
2023/10/19 11:42:23;;;;;;;21.10;14.40;;;;;;;9.38;68.88;98913.23;130900;1256;107655;-78
2023/10/19 11:45:29;;;;;;;21.00;13.80;;;;;;;9.31;69.12;98912.78;130987;1256;107555;-78
2023/10/19 11:48:37;;;;;;;21.50;14.60;;;;;;;9.26;68.93;98917.98;130873;1256;106585;-77
2023/10/19 11:51:43;;;;;;;23.00;15.60;;;;;;;9.18;69.01;98918.87;130962;1256;108677;-77
2023/10/19 11:54:49;;;;;;;23.70;14.90;;;;;;;9.12;69.07;98923.57;130956;1256;107745;-77
2023/10/19 11:57:54;;;;;;;23.00;16.00;;;;;;;9.05;69.24;98918.59;130864;1256;107567;-78
2023/10/19 12:01:00;;;;;;;24.70;16.20;;;;;;;8.99;69.35;98914.67;130948;1256;108531;-78
2023/10/19 12:04:06;;;;;;;22.90;16.30;;;;;;;8.94;69.29;98906.89;130912;1256;106327;-77
2023/10/19 12:07:12;;;;;;;21.50;14.90;;;;;;;8.89;69.11;98905.42;130913;1256;106683;-77
2023/10/19 12:10:20;;;;;;;21.50;14.70;;;;;;;8.81;69.13;98903.56;130877;1254;106714;-77
2023/10/19 12:13:25;;;;;;;21.60;15.30;;;;;;;8.74;69.39;98903.14;130901;1256;106633;-77
2023/10/19 12:16:31;;;;;;;25.10;15.40;;;;;;;8.68;69.54;98906.52;130941;1256;108505;-78
2023/10/19 12:19:37;;;;;;;19.90;13.90;;;;;;;8.65;69.58;98906.68;130899;1254;107703;-77
2023/10/19 12:22:43;;;;;;;24.90;16.70;;;;;;;8.66;69.60;98900.39;130879;1253;107614;-78
2023/10/19 12:25:49;;;;;;;22.80;15.90;;;;;;;8.71;69.64;98893.78;130854;1256;108358;-77
2023/10/19 12:28:54;;;;;;;23.20;15.90;;;;;;;8.73;69.46;98891.57;130850;1256;108538;-77
2023/10/19 12:32:00;;;;;;;25.70;16.60;;;;;;;8.77;69.45;98888.16;130987;1256;107116;-79
2023/10/19 12:35:11;;;;;;;25.30;16.00;;;;;;;8.81;69.51;98886.90;130882;1253;108534;-79
2023/10/19 12:38:17;;;;;;;27.00;17.60;;;;;;;8.84;69.29;98883.61;130798;1256;108339;-77
2023/10/19 12:41:23;;;;;;;24.70;16.70;;;;;;;8.83;69.34;98876.96;130844;1256;107860;-78
2023/10/19 12:44:29;;;;;;;25.90;17.80;;;;;;;8.80;69.37;98871.66;131346;1256;107326;-79
2023/10/19 12:47:35;;;;;;;23.90;17.30;;;;;;;8.78;69.27;98871.04;130973;1256;107591;-81
2023/10/19 12:50:41;;;;;;;23.40;16.40;;;;;;;8.77;69.30;98871.34;131059;1256;108201;-79
2023/10/19 12:53:47;;;;;;;25.80;17.20;;;;;;;8.77;69.24;98874.86;131007;1252;107925;-79
2023/10/19 12:56:53;;;;;;;27.90;18.60;;;;;;;8.74;69.41;98887.26;130910;1256;106988;-78
2023/10/19 13:00:06;;;;;;;31.60;19.20;;;;;;;8.71;69.51;98883.27;131025;1256;105425;-78
2023/10/19 13:03:16;;;;;;;27.00;17.80;;;;;;;8.72;69.41;98863.71;130930;1256;108821;-77
2023/10/19 13:06:23;;;;;;;28.90;19.30;;;;;;;8.76;69.45;98873.55;130986;1256;108592;-78
2023/10/19 13:09:32;;;;;;;25.90;17.50;;;;;;;8.77;69.54;98887.00;131048;1253;106628;-78
2023/10/19 13:12:38;;;;;;;74.40;47.10;;;;;;;8.80;69.21;98880.52;131147;1256;106736;-78
2023/10/19 13:15:48;;;;;;;40.30;24.20;;;;;;;8.80;69.46;98878.38;130975;1256;108630;-77
2023/10/19 13:18:53;;;;;;;29.90;20.50;;;;;;;8.81;69.65;98882.45;131065;1254;108347;-77
2023/10/19 13:22:05;;;;;;;36.30;22.90;;;;;;;8.86;69.68;98877.90;130889;1256;108625;-77
2023/10/19 13:25:12;;;;;;;36.70;22.10;;;;;;;8.88;69.70;98869.55;130816;1256;109189;-77
2023/10/19 13:28:19;;;;;;;21.70;13.90;;;;;;;8.88;69.68;98853.73;130873;1254;106678;-77
2023/10/19 13:31:26;;;;;;;30.70;20.10;;;;;;;8.92;69.59;98841.42;130871;1256;107760;-77
2023/10/19 13:34:31;;;;;;;24.00;17.30;;;;;;;8.97;69.77;98826.70;130848;1253;107032;-78
2023/10/19 13:37:37;;;;;;;33.70;20.70;;;;;;;9.04;69.49;98821.48;130908;1256;107713;-77
2023/10/19 13:40:44;;;;;;;36.10;23.10;;;;;;;9.10;69.65;98816.26;130825;1257;108650;-79
2023/10/19 13:43:50;;;;;;;36.00;21.10;;;;;;;9.15;69.45;98807.20;130825;1256;106538;-78
2023/10/19 13:46:56;;;;;;;34.00;21.60;;;;;;;9.18;69.49;98803.80;130930;1256;107683;-78
2023/10/19 13:50:02;;;;;;;27.10;16.80;;;;;;;9.18;69.32;98798.65;130680;1253;106550;-78
2023/10/19 13:53:08;;;;;;;27.00;17.60;;;;;;;9.17;69.51;98782.65;130679;1253;108520;-78
2023/10/19 13:56:15;;;;;;;30.50;19.60;;;;;;;9.15;69.55;98776.13;130659;1257;107000;-78
2023/10/19 13:59:22;;;;;;;35.40;23.70;;;;;;;9.11;69.48;98779.95;130668;1257;107850;-78
2023/10/19 14:02:29;;;;;;;33.70;22.00;;;;;;;9.07;69.62;98776.73;130663;1258;107707;-78
2023/10/19 14:05:42;;;;;;;31.60;20.30;;;;;;;9.01;69.83;98776.41;130662;1259;108657;-79
2023/10/19 14:08:48;;;;;;;30.10;19.40;;;;;;;8.95;69.66;98768.68;130752;1257;106723;-78
2023/10/19 14:11:54;;;;;;;31.70;20.10;;;;;;;8.92;69.82;98752.48;130739;1257;106580;-79
2023/10/19 14:15:00;;;;;;;44.40;24.60;;;;;;;8.89;69.75;98758.75;130733;1257;108689;-78
2023/10/19 14:18:06;;;;;;;57.60;31.70;;;;;;;8.85;69.90;98755.13;130683;1257;107070;-79